sensor_id;sensor_type;location;lat;lon;timestamp;pressure;altitude;pressure_sealevel;temperature;humidity
15487;BME280;7845;53.698;10.078;2022-07-29T00:02:21;101699.06;;;15.28;100.00
15487;BME280;7845;53.698;10.078;2022-07-29T00:04:47;101699.38;;;15.01;100.00
15487;BME280;7845;53.698;10.078;2022-07-29T00:07:12;101706.59;;;14.81;100.00
15487;BME280;7845;53.698;10.078;2022-07-29T00:09:38;101696.19;;;14.72;100.00
15487;BME280;7845;53.698;10.078;2022-07-29T00:12:03;101703.28;;;14.62;100.00
15487;BME280;7845;53.698;10.078;2022-07-29T00:14:29;101703.41;;;14.47;100.00
15487;BME280;7845;53.698;10.078;2022-07-29T00:16:54;101700.00;;;14.39;100.00
15487;BME280;7845;53.698;10.078;2022-07-29T00:19:19;101695.66;;;14.36;100.00
15487;BME280;7845;53.698;10.078;2022-07-29T00:21:45;101694.66;;;14.48;100.00
15487;BME280;7845;53.698;10.078;2022-07-29T00:24:10;101685.81;;;14.57;100.00
15487;BME280;7845;53.698;10.078;2022-07-29T00:26:35;101692.00;;;14.51;100.00
15487;BME280;7845;53.698;10.078;2022-07-29T00:29:03;101684.13;;;14.51;100.00
15487;BME280;7845;53.698;10.078;2022-07-29T00:31:28;101686.75;;;14.51;100.00
15487;BME280;7845;53.698;10.078;2022-07-29T00:33:54;101682.25;;;14.61;100.00
15487;BME280;7845;53.698;10.078;2022-07-29T00:36:20;101691.88;;;14.62;100.00
15487;BME280;7845;53.698;10.078;2022-07-29T00:38:49;101677.03;;;14.59;100.00
15487;BME280;7845;53.698;10.078;2022-07-29T00:41:16;101685.88;;;14.51;100.00
15487;BME280;7845;53.698;10.078;2022-07-29T00:43:42;101685.88;;;14.51;100.00
15487;BME280;7845;53.698;10.078;2022-07-29T00:46:07;101684.91;;;14.58;100.00
15487;BME280;7845;53.698;10.078;2022-07-29T00:48:33;101684.00;;;14.62;100.00
15487;BME280;7845;53.698;10.078;2022-07-29T00:50:59;101680.56;;;14.55;100.00
15487;BME280;7845;53.698;10.078;2022-07-29T00:53:26;101685.81;;;14.55;100.00
15487;BME280;7845;53.698;10.078;2022-07-29T00:55:53;101693.75;;;14.51;100.00
15487;BME280;7845;53.698;10.078;2022-07-29T00:58:19;101686.81;;;14.44;100.00
15487;BME280;7845;53.698;10.078;2022-07-29T01:00:45;101684.22;;;14.37;100.00
15487;BME280;7845;53.698;10.078;2022-07-29T01:03:10;101681.75;;;14.18;100.00
15487;BME280;7845;53.698;10.078;2022-07-29T01:05:36;101681.75;;;14.18;100.00
15487;BME280;7845;53.698;10.078;2022-07-29T01:08:01;101676.47;;;14.21;100.00
15487;BME280;7845;53.698;10.078;2022-07-29T01:10:27;101677.41;;;14.14;100.00
15487;BME280;7845;53.698;10.078;2022-07-29T01:12:55;101673.97;;;14.06;100.00
15487;BME280;7845;53.698;10.078;2022-07-29T01:15:22;101671.41;;;13.95;100.00
15487;BME280;7845;53.698;10.078;2022-07-29T01:17:57;101670.63;;;13.85;100.00
15487;BME280;7845;53.698;10.078;2022-07-29T01:23:35;101660.19;;;13.73;100.00
15487;BME280;7845;53.698;10.078;2022-07-29T01:26:41;101658.47;;;13.66;100.00
15487;BME280;7845;53.698;10.078;2022-07-29T01:29:29;101662.00;;;13.59;100.00
15487;BME280;7845;53.698;10.078;2022-07-29T01:31:59;101669.03;;;13.59;100.00
15487;BME280;7845;53.698;10.078;2022-07-29T01:34:53;101669.03;;;13.54;100.00
15487;BME280;7845;53.698;10.078;2022-07-29T01:37:29;101661.25;;;13.44;100.00
15487;BME280;7845;53.698;10.078;2022-07-29T01:39:56;101659.44;;;13.50;100.00
15487;BME280;7845;53.698;10.078;2022-07-29T01:42:28;101655.03;;;13.58;100.00
15487;BME280;7845;53.698;10.078;2022-07-29T01:44:59;101648.94;;;13.53;100.00
15487;BME280;7845;53.698;10.078;2022-07-29T01:47:39;101648.94;;;13.55;100.00
15487;BME280;7845;53.698;10.078;2022-07-29T01:50:10;101648.09;;;13.53;100.00
15487;BME280;7845;53.698;10.078;2022-07-29T01:52:56;101649.81;;;13.58;100.00
15487;BME280;7845;53.698;10.078;2022-07-29T01:55:26;101639.31;;;13.58;100.00
15487;BME280;7845;53.698;10.078;2022-07-29T01:57:53;101642.78;;;13.65;100.00
15487;BME280;7845;53.698;10.078;2022-07-29T02:00:21;101637.53;;;13.65;100.00
15487;BME280;7845;53.698;10.078;2022-07-29T02:02:48;101634.91;;;13.62;100.00
15487;BME280;7845;53.698;10.078;2022-07-29T02:05:17;101630.50;;;13.67;100.00
15487;BME280;7845;53.698;10.078;2022-07-29T02:07:46;101632.19;;;13.75;100.00
15487;BME280;7845;53.698;10.078;2022-07-29T02:10:13;101633.03;;;13.79;100.00
15487;BME280;7845;53.698;10.078;2022-07-29T02:12:42;101628.69;;;13.75;100.00
15487;BME280;7845;53.698;10.078;2022-07-29T02:15:09;101624.31;;;13.74;100.00
15487;BME280;7845;53.698;10.078;2022-07-29T02:17:42;101621.75;;;13.66;100.00
15487;BME280;7845;53.698;10.078;2022-07-29T02:20:09;101623.47;;;13.69;100.00
15487;BME280;7845;53.698;10.078;2022-07-29T02:22:37;101621.72;;;13.69;100.00
15487;BME280;7845;53.698;10.078;2022-07-29T02:25:05;101620.00;;;13.67;100.00
15487;BME280;7845;53.698;10.078;2022-07-29T02:27:33;101623.56;;;13.58;100.00
15487;BME280;7845;53.698;10.078;2022-07-29T02:30:00;101614.78;;;13.59;100.00
15487;BME280;7845;53.698;10.078;2022-07-29T02:32:27;101617.41;;;13.62;100.00
15487;BME280;7845;53.698;10.078;2022-07-29T02:34:53;101619.16;;;13.63;100.00
15487;BME280;7845;53.698;10.078;2022-07-29T02:37:21;101610.41;;;13.64;100.00
15487;BME280;7845;53.698;10.078;2022-07-29T02:39:48;101612.13;;;13.67;100.00
15487;BME280;7845;53.698;10.078;2022-07-29T02:42:16;101602.50;;;13.70;100.00
15487;BME280;7845;53.698;10.078;2022-07-29T02:44:43;101613.00;;;13.67;100.00
15487;BME280;7845;53.698;10.078;2022-07-29T02:47:34;101610.41;;;13.64;100.00
15487;BME280;7845;53.698;10.078;2022-07-29T02:50:03;101611.22;;;13.68;100.00
15487;BME280;7845;53.698;10.078;2022-07-29T02:52:32;101599.84;;;13.73;100.00
15487;BME280;7845;53.698;10.078;2022-07-29T02:55:23;101603.38;;;13.68;100.00
15487;BME280;7845;53.698;10.078;2022-07-29T02:58:13;101601.66;;;13.67;100.00
15487;BME280;7845;53.698;10.078;2022-07-29T03:00:42;101596.41;;;13.62;100.00
15487;BME280;7845;53.698;10.078;2022-07-29T03:03:12;101592.06;;;13.61;100.00
15487;BME280;7845;53.698;10.078;2022-07-29T03:05:39;101599.91;;;13.63;100.00
15487;BME280;7845;53.698;10.078;2022-07-29T03:08:06;101594.66;;;13.63;100.00
15487;BME280;7845;53.698;10.078;2022-07-29T03:10:33;101592.91;;;13.63;100.00
15487;BME280;7845;53.698;10.078;2022-07-29T03:13:00;101590.31;;;13.65;100.00
15487;BME280;7845;53.698;10.078;2022-07-29T03:15:25;101585.84;;;13.76;100.00
15487;BME280;7845;53.698;10.078;2022-07-29T03:17:52;101589.31;;;13.75;100.00
15487;BME280;7845;53.698;10.078;2022-07-29T03:20:17;101597.28;;;13.63;100.00
15487;BME280;7845;53.698;10.078;2022-07-29T03:22:44;101587.63;;;13.69;100.00
15487;BME280;7845;53.698;10.078;2022-07-29T03:25:16;101583.25;;;13.68;100.00
15487;BME280;7845;53.698;10.078;2022-07-29T03:27:42;101587.59;;;13.71;100.00
15487;BME280;7845;53.698;10.078;2022-07-29T03:30:09;101582.31;;;13.78;100.00
15487;BME280;7845;53.698;10.078;2022-07-29T03:32:35;101584.91;;;13.80;100.00
15487;BME280;7845;53.698;10.078;2022-07-29T03:35:00;101582.25;;;13.84;100.00
15487;BME280;7845;53.698;10.078;2022-07-29T03:37:26;101583.13;;;13.88;100.00
15487;BME280;7845;53.698;10.078;2022-07-29T03:39:52;101586.56;;;13.95;100.00
15487;BME280;7845;53.698;10.078;2022-07-29T03:42:23;101586.50;;;13.99;100.00
15487;BME280;7845;53.698;10.078;2022-07-29T03:44:50;101582.13;;;14.00;100.00
15487;BME280;7845;53.698;10.078;2022-07-29T03:47:19;101584.75;;;13.98;100.00
15487;BME280;7845;53.698;10.078;2022-07-29T03:49:48;101579.59;;;13.91;100.00
15487;BME280;7845;53.698;10.078;2022-07-29T03:52:16;101584.75;;;14.00;100.00
15487;BME280;7845;53.698;10.078;2022-07-29T03:54:41;101580.38;;;14.00;100.00
15487;BME280;7845;53.698;10.078;2022-07-29T03:57:07;101576.81;;;14.04;100.00
15487;BME280;7845;53.698;10.078;2022-07-29T03:59:36;101575.91;;;14.10;100.00
15487;BME280;7845;53.698;10.078;2022-07-29T04:02:06;101582.09;;;14.03;100.00
15487;BME280;7845;53.698;10.078;2022-07-29T04:04:36;101578.50;;;14.13;100.00
15487;BME280;7845;53.698;10.078;2022-07-29T04:07:02;101581.09;;;14.17;100.00
15487;BME280;7845;53.698;10.078;2022-07-29T04:09:28;101578.53;;;14.11;100.00
15487;BME280;7845;53.698;10.078;2022-07-29T04:11:54;101579.34;;;14.18;100.00
15487;BME280;7845;53.698;10.078;2022-07-29T04:14:19;101574.97;;;14.17;100.00
15487;BME280;7845;53.698;10.078;2022-07-29T04:16:45;101574.06;;;14.21;100.00
15487;BME280;7845;53.698;10.078;2022-07-29T04:19:10;101580.09;;;14.33;100.00
15487;BME280;7845;53.698;10.078;2022-07-29T04:21:37;101573.94;;;14.34;100.00
15487;BME280;7845;53.698;10.078;2022-07-29T04:24:03;101574.75;;;14.39;100.00
15487;BME280;7845;53.698;10.078;2022-07-29T04:26:28;101569.47;;;14.44;100.00
15487;BME280;7845;53.698;10.078;2022-07-29T04:28:54;101572.00;;;14.52;100.00
15487;BME280;7845;53.698;10.078;2022-07-29T04:31:19;101574.66;;;14.50;100.00
15487;BME280;7845;53.698;10.078;2022-07-29T04:33:44;101578.94;;;14.60;100.00
15487;BME280;7845;53.698;10.078;2022-07-29T04:36:09;101580.53;;;14.70;100.00
15487;BME280;7845;53.698;10.078;2022-07-29T04:38:36;101569.13;;;14.74;100.00
15487;BME280;7845;53.698;10.078;2022-07-29T04:41:02;101574.28;;;14.83;100.00
15487;BME280;7845;53.698;10.078;2022-07-29T04:43:27;101570.69;;;14.89;100.00
15487;BME280;7845;53.698;10.078;2022-07-29T04:45:52;101574.13;;;14.94;100.00
15487;BME280;7845;53.698;10.078;2022-07-29T04:48:18;101573.88;;;15.12;100.00
15487;BME280;7845;53.698;10.078;2022-07-29T04:50:44;101573.78;;;15.20;100.00
15487;BME280;7845;53.698;10.078;2022-07-29T04:53:09;101574.59;;;15.25;100.00
15487;BME280;7845;53.698;10.078;2022-07-29T04:55:34;101580.47;;;15.43;100.00
15487;BME280;7845;53.698;10.078;2022-07-29T04:58:01;101577.16;;;15.87;100.00
15487;BME280;7845;53.698;10.078;2022-07-29T05:00:26;101571.84;;;15.89;100.00
15487;BME280;7845;53.698;10.078;2022-07-29T05:02:52;101580.72;;;15.85;100.00
15487;BME280;7845;53.698;10.078;2022-07-29T05:05:18;101580.03;;;15.72;100.00
15487;BME280;7845;53.698;10.078;2022-07-29T05:07:44;101579.31;;;15.64;100.00
15487;BME280;7845;53.698;10.078;2022-07-29T05:10:09;101574.09;;;15.60;100.00
15487;BME280;7845;53.698;10.078;2022-07-29T05:12:35;101576.78;;;15.57;100.00
15487;BME280;7845;53.698;10.078;2022-07-29T05:15:00;101575.94;;;15.55;100.00
15487;BME280;7845;53.698;10.078;2022-07-29T05:17:26;101579.31;;;15.63;100.00
15487;BME280;7845;53.698;10.078;2022-07-29T05:19:51;101572.47;;;15.51;100.00
15487;BME280;7845;53.698;10.078;2022-07-29T05:22:20;101575.84;;;15.61;100.00
15487;BME280;7845;53.698;10.078;2022-07-29T05:24:46;101573.91;;;15.72;100.00
15487;BME280;7845;53.698;10.078;2022-07-29T05:27:12;101577.44;;;15.71;100.00
15487;BME280;7845;53.698;10.078;2022-07-29T05:29:37;101577.41;;;15.72;100.00
15487;BME280;7845;53.698;10.078;2022-07-29T05:32:03;101580.13;;;15.66;100.00
15487;BME280;7845;53.698;10.078;2022-07-29T05:34:30;101578.16;;;15.80;100.00
15487;BME280;7845;53.698;10.078;2022-07-29T05:36:55;101586.13;;;15.76;100.00
15487;BME280;7845;53.698;10.078;2022-07-29T05:39:21;101589.59;;;15.79;100.00
15487;BME280;7845;53.698;10.078;2022-07-29T05:41:46;101597.41;;;15.84;100.00
15487;BME280;7845;53.698;10.078;2022-07-29T05:44:12;101590.41;;;15.83;100.00
15487;BME280;7845;53.698;10.078;2022-07-29T05:46:38;101587.66;;;15.90;100.00
15487;BME280;7845;53.698;10.078;2022-07-29T05:49:04;101590.19;;;15.95;100.00
15487;BME280;7845;53.698;10.078;2022-07-29T05:51:40;101588.53;;;15.89;100.00
15487;BME280;7845;53.698;10.078;2022-07-29T05:54:06;101589.31;;;15.96;100.00
15487;BME280;7845;53.698;10.078;2022-07-29T05:56:32;101583.06;;;16.01;100.00
15487;BME280;7845;53.698;10.078;2022-07-29T05:58:57;101589.81;;;16.16;100.00
15487;BME280;7845;53.698;10.078;2022-07-29T06:01:22;101590.47;;;16.30;100.00
15487;BME280;7845;53.698;10.078;2022-07-29T06:03:47;101593.75;;;16.41;100.00
15487;BME280;7845;53.698;10.078;2022-07-29T06:06:13;101597.94;;;16.53;100.00
15487;BME280;7845;53.698;10.078;2022-07-29T06:08:38;101600.38;;;16.64;100.00
15487;BME280;7845;53.698;10.078;2022-07-29T06:11:05;101600.31;;;16.68;100.00
15487;BME280;7845;53.698;10.078;2022-07-29T06:13:31;101594.22;;;16.65;100.00
15487;BME280;7845;53.698;10.078;2022-07-29T06:15:56;101588.84;;;16.71;100.00
15487;BME280;7845;53.698;10.078;2022-07-29T06:18:22;101592.53;;;16.62;100.00
15487;BME280;7845;53.698;10.078;2022-07-29T06:20:53;101597.72;;;16.65;100.00
15487;BME280;7845;53.698;10.078;2022-07-29T06:23:19;101586.81;;;16.83;100.00
15487;BME280;7845;53.698;10.078;2022-07-29T06:25:45;101592.84;;;16.90;100.00
15487;BME280;7845;53.698;10.078;2022-07-29T06:28:10;101583.69;;;17.07;100.00
15487;BME280;7845;53.698;10.078;2022-07-29T06:30:35;101585.94;;;17.24;100.00
15487;BME280;7845;53.698;10.078;2022-07-29T06:33:01;101587.47;;;17.34;100.00
15487;BME280;7845;53.698;10.078;2022-07-29T06:35:27;101581.66;;;17.20;100.00
15487;BME280;7845;53.698;10.078;2022-07-29T06:37:52;101583.16;;;17.32;100.00
15487;BME280;7845;53.698;10.078;2022-07-29T06:40:18;101581.94;;;17.45;100.00
15487;BME280;7845;53.698;10.078;2022-07-29T06:43:02;101579.94;;;17.57;100.00
15487;BME280;7845;53.698;10.078;2022-07-29T06:45:27;101591.47;;;17.52;100.00
15487;BME280;7845;53.698;10.078;2022-07-29T06:47:52;101578.75;;;17.71;100.00
15487;BME280;7845;53.698;10.078;2022-07-29T06:50:18;101580.31;;;17.78;100.00
15487;BME280;7845;53.698;10.078;2022-07-29T06:52:44;101572.81;;;17.61;100.00
15487;BME280;7845;53.698;10.078;2022-07-29T06:55:09;101578.75;;;17.71;100.00
15487;BME280;7845;53.698;10.078;2022-07-29T06:57:34;101578.22;;;17.92;100.00
15487;BME280;7845;53.698;10.078;2022-07-29T07:00:00;101579.47;;;18.11;100.00
15487;BME280;7845;53.698;10.078;2022-07-29T07:02:25;101575.28;;;18.36;100.00
15487;BME280;7845;53.698;10.078;2022-07-29T07:04:52;101570.66;;;18.44;100.00
15487;BME280;7845;53.698;10.078;2022-07-29T07:07:17;101571.47;;;18.46;100.00
15487;BME280;7845;53.698;10.078;2022-07-29T07:09:42;101573.88;;;18.57;100.00
15487;BME280;7845;53.698;10.078;2022-07-29T07:12:08;101570.34;;;18.56;100.00
15487;BME280;7845;53.698;10.078;2022-07-29T07:14:33;101570.81;;;18.70;100.00
15487;BME280;7845;53.698;10.078;2022-07-29T07:16:59;101570.44;;;18.84;100.00
15487;BME280;7845;53.698;10.078;2022-07-29T07:19:25;101562.31;;;18.90;100.00
15487;BME280;7845;53.698;10.078;2022-07-29T07:21:52;101568.00;;;19.06;100.00
15487;BME280;7845;53.698;10.078;2022-07-29T07:24:18;101564.03;;;19.20;100.00
15487;BME280;7845;53.698;10.078;2022-07-29T07:26:43;101557.59;;;19.29;100.00
15487;BME280;7845;53.698;10.078;2022-07-29T07:29:08;101557.59;;;19.29;100.00
15487;BME280;7845;53.698;10.078;2022-07-29T07:31:34;101553.53;;;19.47;100.00
15487;BME280;7845;53.698;10.078;2022-07-29T07:33:59;101550.28;;;19.37;100.00
15487;BME280;7845;53.698;10.078;2022-07-29T07:36:25;101541.69;;;19.58;100.00
15487;BME280;7845;53.698;10.078;2022-07-29T07:38:50;101538.25;;;19.55;100.00
15487;BME280;7845;53.698;10.078;2022-07-29T07:41:16;101538.38;;;19.78;100.00
15487;BME280;7845;53.698;10.078;2022-07-29T07:43:42;101545.09;;;19.88;100.00
15487;BME280;7845;53.698;10.078;2022-07-29T07:46:07;101542.19;;;19.96;100.00
15487;BME280;7845;53.698;10.078;2022-07-29T07:48:32;101539.41;;;19.99;100.00
15487;BME280;7845;53.698;10.078;2022-07-29T07:50:59;101543.66;;;20.04;100.00
15487;BME280;7845;53.698;10.078;2022-07-29T07:53:25;101537.78;;;20.21;100.00
15487;BME280;7845;53.698;10.078;2022-07-29T07:55:50;101541.66;;;20.11;100.00
15487;BME280;7845;53.698;10.078;2022-07-29T07:58:15;101540.25;;;20.27;100.00
15487;BME280;7845;53.698;10.078;2022-07-29T08:00:40;101542.69;;;20.33;100.00
15487;BME280;7845;53.698;10.078;2022-07-29T08:03:06;101536.22;;;20.40;100.00
15487;BME280;7845;53.698;10.078;2022-07-29T08:05:31;101536.88;;;20.47;100.00
15487;BME280;7845;53.698;10.078;2022-07-29T08:07:57;101543.69;;;20.54;100.00
15487;BME280;7845;53.698;10.078;2022-07-29T08:10:23;101543.72;;;20.52;100.00
15487;BME280;7845;53.698;10.078;2022-07-29T08:13:08;101542.13;;;20.48;100.00
15487;BME280;7845;53.698;10.078;2022-07-29T08:15:34;101538.50;;;20.51;100.00
15487;BME280;7845;53.698;10.078;2022-07-29T08:17:59;101543.81;;;20.51;100.00
15487;BME280;7845;53.698;10.078;2022-07-29T08:20:25;101539.47;;;20.48;100.00
15487;BME280;7845;53.698;10.078;2022-07-29T08:22:51;101538.75;;;20.43;100.00
15487;BME280;7845;53.698;10.078;2022-07-29T08:25:16;101539.19;;;20.31;100.00
15487;BME280;7845;53.698;10.078;2022-07-29T08:27:46;101546.25;;;20.32;100.00
15487;BME280;7845;53.698;10.078;2022-07-29T08:30:11;101541.13;;;20.27;100.00
15487;BME280;7845;53.698;10.078;2022-07-29T08:32:37;101542.59;;;20.34;100.00
15487;BME280;7845;53.698;10.078;2022-07-29T08:35:03;101539.59;;;20.45;100.00
15487;BME280;7845;53.698;10.078;2022-07-29T08:37:28;101539.47;;;20.48;100.00
15487;BME280;7845;53.698;10.078;2022-07-29T08:39:53;101543.44;;;20.36;100.00
15487;BME280;7845;53.698;10.078;2022-07-29T08:42:21;101546.50;;;20.49;100.00
15487;BME280;7845;53.698;10.078;2022-07-29T08:44:46;101543.91;;;20.48;100.00
15487;BME280;7845;53.698;10.078;2022-07-29T08:47:16;101545.31;;;20.58;100.00
15487;BME280;7845;53.698;10.078;2022-07-29T08:49:42;101544.00;;;20.69;100.00
15487;BME280;7845;53.698;10.078;2022-07-29T08:52:10;101547.91;;;20.82;100.00
15487;BME280;7845;53.698;10.078;2022-07-29T08:54:36;101552.75;;;20.94;100.00
15487;BME280;7845;53.698;10.078;2022-07-29T08:57:01;101547.66;;;20.88;100.00
15487;BME280;7845;53.698;10.078;2022-07-29T08:59:27;101535.72;;;21.00;100.00
15487;BME280;7845;53.698;10.078;2022-07-29T09:01:56;101536.34;;;21.08;100.00
15487;BME280;7845;53.698;10.078;2022-07-29T09:04:25;101533.63;;;21.10;100.00
15487;BME280;7845;53.698;10.078;2022-07-29T09:06:54;101528.84;;;21.18;100.00
15487;BME280;7845;53.698;10.078;2022-07-29T09:09:21;101521.41;;;21.27;100.00
15487;BME280;7845;53.698;10.078;2022-07-29T09:11:47;101519.31;;;21.35;100.00
15487;BME280;7845;53.698;10.078;2022-07-29T09:14:14;101517.03;;;21.26;100.00
15487;BME280;7845;53.698;10.078;2022-07-29T09:16:55;101521.22;;;21.32;100.00
15487;BME280;7845;53.698;10.078;2022-07-29T09:19:31;101514.91;;;21.34;100.00
15487;BME280;7845;53.698;10.078;2022-07-29T09:21:58;101525.19;;;21.43;100.00
15487;BME280;7845;53.698;10.078;2022-07-29T09:24:36;101516.22;;;21.46;100.00
15487;BME280;7845;53.698;10.078;2022-07-29T09:27:18;101513.34;;;21.50;100.00
15487;BME280;7845;53.698;10.078;2022-07-29T09:29:45;101520.03;;;21.61;100.00
15487;BME280;7845;53.698;10.078;2022-07-29T09:32:10;101515.50;;;21.63;100.00
15487;BME280;7845;53.698;10.078;2022-07-29T09:34:36;101516.59;;;21.59;100.00
15487;BME280;7845;53.698;10.078;2022-07-29T09:37:02;101517.31;;;21.62;100.00
15487;BME280;7845;53.698;10.078;2022-07-29T09:39:37;101514.09;;;21.54;100.00
15487;BME280;7845;53.698;10.078;2022-07-29T09:42:05;101520.50;;;21.50;100.00
15487;BME280;7845;53.698;10.078;2022-07-29T09:44:49;101505.47;;;21.49;100.00
15487;BME280;7845;53.698;10.078;2022-07-29T09:47:17;101503.69;;;21.49;100.00
15487;BME280;7845;53.698;10.078;2022-07-29T09:49:59;101499.22;;;21.50;100.00
15487;BME280;7845;53.698;10.078;2022-07-29T09:52:28;101497.75;;;21.43;100.00
15487;BME280;7845;53.698;10.078;2022-07-29T09:55:08;101501.81;;;21.51;100.00
15487;BME280;7845;53.698;10.078;2022-07-29T09:57:33;101497.91;;;21.60;100.00
15487;BME280;7845;53.698;10.078;2022-07-29T10:02:31;101501.56;;;21.78;100.00
15487;BME280;7845;53.698;10.078;2022-07-29T10:04:57;101492.69;;;21.79;100.00
15487;BME280;7845;53.698;10.078;2022-07-29T10:07:23;101493.22;;;21.87;99.84
15487;BME280;7845;53.698;10.078;2022-07-29T10:09:52;101481.59;;;21.89;90.15
15487;BME280;7845;53.698;10.078;2022-07-29T10:12:18;101483.09;;;21.96;92.50
15487;BME280;7845;53.698;10.078;2022-07-29T10:14:44;101497.91;;;22.02;95.10
15487;BME280;7845;53.698;10.078;2022-07-29T10:17:10;101483.19;;;22.14;88.89
15487;BME280;7845;53.698;10.078;2022-07-29T10:19:37;101483.81;;;22.20;88.36
15487;BME280;7845;53.698;10.078;2022-07-29T10:22:06;101474.91;;;22.21;85.01
15487;BME280;7845;53.698;10.078;2022-07-29T10:24:32;101481.59;;;22.30;88.52
15487;BME280;7845;53.698;10.078;2022-07-29T10:27:00;101474.94;;;22.40;85.66
15487;BME280;7845;53.698;10.078;2022-07-29T10:29:26;101466.75;;;22.44;81.59
15487;BME280;7845;53.698;10.078;2022-07-29T10:32:04;101471.69;;;22.52;83.59
15487;BME280;7845;53.698;10.078;2022-07-29T10:38:14;101459.13;;;22.37;81.88
15487;BME280;7845;53.698;10.078;2022-07-29T10:43:43;101462.00;;;22.51;82.52
15487;BME280;7845;53.698;10.078;2022-07-29T10:46:10;101465.53;;;22.51;84.39
15487;BME280;7845;53.698;10.078;2022-07-29T10:49:06;101469.31;;;22.66;86.65
15487;BME280;7845;53.698;10.078;2022-07-29T10:54:42;101448.88;;;22.67;79.92
15487;BME280;7845;53.698;10.078;2022-07-29T10:59:40;101449.09;;;22.81;79.54
15487;BME280;7845;53.698;10.078;2022-07-29T11:07:23;101453.44;;;23.36;81.37
15487;BME280;7845;53.698;10.078;2022-07-29T11:15:06;101452.41;;;23.75;78.51
15487;BME280;7845;53.698;10.078;2022-07-29T11:20:39;101441.88;;;24.06;76.62
15487;BME280;7845;53.698;10.078;2022-07-29T11:23:32;101446.13;;;24.10;76.64
15487;BME280;7845;53.698;10.078;2022-07-29T11:28:39;101432.75;;;24.27;74.99
15487;BME280;7845;53.698;10.078;2022-07-29T11:31:09;101430.47;;;24.19;70.88
15487;BME280;7845;53.698;10.078;2022-07-29T11:33:36;101432.66;;;24.29;71.54
15487;BME280;7845;53.698;10.078;2022-07-29T11:36:12;101437.44;;;24.39;72.54
15487;BME280;7845;53.698;10.078;2022-07-29T11:38:39;101432.34;;;24.50;71.07
15487;BME280;7845;53.698;10.078;2022-07-29T11:43:52;101426.09;;;24.67;71.69
15487;BME280;7845;53.698;10.078;2022-07-29T11:46:47;101431.56;;;24.97;71.58
15487;BME280;7845;53.698;10.078;2022-07-29T11:49:19;101417.72;;;25.20;68.41
15487;BME280;7845;53.698;10.078;2022-07-29T11:51:51;101417.69;;;25.36;69.97
15487;BME280;7845;53.698;10.078;2022-07-29T11:54:31;101414.13;;;25.51;67.67
15487;BME280;7845;53.698;10.078;2022-07-29T11:56:57;101399.91;;;25.50;61.63
15487;BME280;7845;53.698;10.078;2022-07-29T11:59:24;101394.13;;;25.72;61.28
15487;BME280;7845;53.698;10.078;2022-07-29T12:01:58;101385.56;;;25.95;60.07
15487;BME280;7845;53.698;10.078;2022-07-29T12:04:24;101397.81;;;26.13;61.09
15487;BME280;7845;53.698;10.078;2022-07-29T12:06:50;101388.06;;;25.98;58.76
15487;BME280;7845;53.698;10.078;2022-07-29T12:09:17;101379.06;;;25.99;56.70
15487;BME280;7845;53.698;10.078;2022-07-29T12:11:42;101377.91;;;26.03;57.40
15487;BME280;7845;53.698;10.078;2022-07-29T12:14:08;101379.66;;;26.32;61.11
15487;BME280;7845;53.698;10.078;2022-07-29T12:16:36;101380.13;;;26.39;57.89
15487;BME280;7845;53.698;10.078;2022-07-29T12:19:02;101373.91;;;26.38;56.58
15487;BME280;7845;53.698;10.078;2022-07-29T12:21:46;101375.72;;;26.38;56.71
15487;BME280;7845;53.698;10.078;2022-07-29T12:24:13;101362.22;;;26.11;53.16
15487;BME280;7845;53.698;10.078;2022-07-29T12:26:53;101382.84;;;25.81;58.35
15487;BME280;7845;53.698;10.078;2022-07-29T12:29:19;101393.09;;;26.03;62.75
15487;BME280;7845;53.698;10.078;2022-07-29T12:31:44;101399.97;;;25.93;66.82
15487;BME280;7845;53.698;10.078;2022-07-29T12:34:13;101401.22;;;25.87;67.45
15487;BME280;7845;53.698;10.078;2022-07-29T12:36:41;101392.13;;;25.75;69.26
15487;BME280;7845;53.698;10.078;2022-07-29T12:39:08;101403.25;;;25.54;69.44
15487;BME280;7845;53.698;10.078;2022-07-29T12:41:34;101398.88;;;25.37;69.09
15487;BME280;7845;53.698;10.078;2022-07-29T12:44:00;101406.81;;;25.39;71.67
15487;BME280;7845;53.698;10.078;2022-07-29T12:46:26;101397.31;;;25.49;72.34
15487;BME280;7845;53.698;10.078;2022-07-29T12:48:52;101403.84;;;25.59;72.82
15487;BME280;7845;53.698;10.078;2022-07-29T12:51:31;101405.69;;;25.72;71.97
15487;BME280;7845;53.698;10.078;2022-07-29T12:54:11;101400.16;;;25.75;70.25
15487;BME280;7845;53.698;10.078;2022-07-29T12:56:39;101405.41;;;25.77;72.36
15487;BME280;7845;53.698;10.078;2022-07-29T12:59:18;101414.56;;;25.59;72.79
15487;BME280;7845;53.698;10.078;2022-07-29T13:01:45;101409.34;;;25.71;72.02
15487;BME280;7845;53.698;10.078;2022-07-29T13:04:30;101410.78;;;26.05;74.26
15487;BME280;7845;53.698;10.078;2022-07-29T13:07:02;101399.59;;;25.99;73.64
15487;BME280;7845;53.698;10.078;2022-07-29T13:09:39;101406.66;;;26.14;73.40
15487;BME280;7845;53.698;10.078;2022-07-29T13:12:07;101402.28;;;26.13;74.81
15487;BME280;7845;53.698;10.078;2022-07-29T13:14:41;101412.03;;;25.85;76.59
15487;BME280;7845;53.698;10.078;2022-07-29T13:17:12;101396.53;;;26.05;75.43
15487;BME280;7845;53.698;10.078;2022-07-29T13:19:43;101405.38;;;25.63;74.95
15487;BME280;7845;53.698;10.078;2022-07-29T13:22:18;101395.41;;;25.95;75.29
15487;BME280;7845;53.698;10.078;2022-07-29T13:24:53;101395.31;;;26.10;76.85
15487;BME280;7845;53.698;10.078;2022-07-29T13:27:25;101400.78;;;26.23;74.84